Time;durP1;ratioP1;P1;durP2;ratioP2;P2;SDS_P1;SDS_P2;PMS_P1;PMS_P2;Temp;Humidity;BMP_temperature;BMP_pressure;BME280_temperature;BME280_humidity;BME280_pressure;Samples;Min_cycle;Max_cycle;Signal;HPM_P1;HPM_P2
2022/04/22 00:01:36;;;;;;;11.00;9.60;;;;;;;10.07;100.00;94040.44;5092598;28;20210;-59
2022/04/22 00:04:03;;;;;;;12.43;10.10;;;;;;;9.84;100.00;94035.19;5092438;28;20188;-58
2022/04/22 00:06:29;;;;;;;10.97;9.13;;;;;;;9.72;100.00;94041.38;5092931;28;20179;-58
2022/04/22 00:08:55;;;;;;;11.93;9.90;;;;;;;9.80;100.00;94028.34;5092615;28;20212;-59
2022/04/22 00:11:29;;;;;;;10.83;9.23;;;;;;;9.81;100.00;94033.31;5092946;28;20191;-58
2022/04/22 00:13:57;;;;;;;12.10;9.43;;;;;;;9.84;100.00;94024.28;5092329;28;20194;-59
2022/04/22 00:16:23;;;;;;;11.03;9.47;;;;;;;9.58;100.00;94014.50;5092482;28;20600;-59
2022/04/22 00:18:49;;;;;;;10.70;8.83;;;;;;;9.78;100.00;94017.09;5092421;28;20225;-60
2022/04/22 00:21:14;;;;;;;10.63;9.53;;;;;;;9.59;100.00;94013.28;5092367;28;20190;-59
2022/04/22 00:23:40;;;;;;;11.63;9.57;;;;;;;9.68;100.00;94013.44;5095630;28;20201;-60
2022/04/22 00:26:05;;;;;;;12.07;9.90;;;;;;;9.58;100.00;94011.78;5096256;28;20202;-59
2022/04/22 00:28:31;;;;;;;12.03;10.00;;;;;;;9.76;100.00;94014.00;5095850;28;20194;-59
2022/04/22 00:30:56;;;;;;;10.90;9.27;;;;;;;9.69;100.00;94012.25;5095785;28;20190;-59
2022/04/22 00:33:21;;;;;;;14.97;9.70;;;;;;;9.69;100.00;94009.53;5095970;28;20186;-59
2022/04/22 00:35:47;;;;;;;11.33;10.07;;;;;;;9.61;100.00;94002.75;5095892;28;20183;-60
2022/04/22 00:38:13;;;;;;;12.00;9.23;;;;;;;9.59;100.00;94005.13;5096216;28;20192;-59
2022/04/22 00:40:38;;;;;;;10.33;9.03;;;;;;;9.67;100.00;93981.94;5095752;28;20207;-59
2022/04/22 00:43:18;;;;;;;10.87;9.13;;;;;;;9.59;100.00;93991.50;5095761;28;20194;-59
2022/04/22 00:45:44;;;;;;;12.40;9.27;;;;;;;9.62;100.00;93987.91;5095495;28;20225;-59
2022/04/22 00:48:10;;;;;;;11.23;9.47;;;;;;;9.60;100.00;93984.88;5095842;28;20275;-59
2022/04/22 00:50:36;;;;;;;12.80;9.60;;;;;;;9.51;100.00;93982.00;5095495;28;20280;-58
2022/04/22 00:53:02;;;;;;;13.00;9.17;;;;;;;9.47;100.00;93981.31;5095563;28;20184;-59
2022/04/22 00:55:29;;;;;;;12.47;9.40;;;;;;;9.48;100.00;93971.94;5095567;28;20257;-59
2022/04/22 00:57:55;;;;;;;12.07;9.40;;;;;;;9.29;100.00;93964.69;5095472;28;20188;-59
2022/04/22 01:00:21;;;;;;;10.40;9.30;;;;;;;9.25;100.00;93969.47;5095136;28;20205;-59
2022/04/22 01:02:47;;;;;;;12.83;9.30;;;;;;;9.31;100.00;93967.75;5095475;28;20176;-59
2022/04/22 01:10:40;;;;;;;10.67;9.10;;;;;;;9.16;100.00;93952.22;5096736;28;20203;-59
2022/04/22 01:13:07;;;;;;;11.90;9.60;;;;;;;8.96;100.00;93954.31;5095083;28;20195;-59
2022/04/22 01:15:34;;;;;;;11.80;9.43;;;;;;;8.96;100.00;93946.88;5095034;28;20220;-59
2022/04/22 01:18:00;;;;;;;10.77;9.43;;;;;;;9.02;100.00;93947.91;5094969;28;20181;-59
2022/04/22 01:20:26;;;;;;;10.80;9.43;;;;;;;8.95;100.00;93945.34;5094843;28;20640;-59
2022/04/22 01:22:51;;;;;;;14.00;9.63;;;;;;;8.89;100.00;93935.44;5094759;28;20185;-59
2022/04/22 01:25:16;;;;;;;11.40;8.97;;;;;;;8.98;100.00;93947.22;5095140;28;20222;-59
2022/04/22 01:27:43;;;;;;;14.03;9.67;;;;;;;8.89;100.00;93944.34;5094974;28;20218;-59
2022/04/22 01:30:09;;;;;;;14.00;9.73;;;;;;;8.91;100.00;93938.47;5094651;28;20232;-58
2022/04/22 01:32:34;;;;;;;11.77;9.53;;;;;;;8.96;100.00;93940.69;5094814;28;20188;-59
2022/04/22 01:35:00;;;;;;;12.27;9.70;;;;;;;8.80;100.00;93938.75;5093828;28;20182;-59
2022/04/22 01:37:25;;;;;;;10.73;9.57;;;;;;;8.92;100.00;93935.31;5095198;28;20185;-59
2022/04/22 01:39:51;;;;;;;12.50;9.67;;;;;;;8.87;100.00;93938.56;5094338;28;20205;-59
2022/04/22 01:42:20;;;;;;;12.13;9.10;;;;;;;8.86;100.00;93920.69;5094700;28;20189;-59
2022/04/22 01:44:46;;;;;;;10.73;9.00;;;;;;;8.88;100.00;93928.44;5095077;28;20234;-59
2022/04/22 01:47:12;;;;;;;11.07;9.67;;;;;;;8.82;100.00;93920.00;5094749;28;20189;-59
2022/04/22 01:49:37;;;;;;;12.00;9.73;;;;;;;8.68;100.00;93916.91;5094539;28;20196;-60
2022/04/22 01:52:03;;;;;;;12.10;9.33;;;;;;;8.78;100.00;93916.63;5094609;28;20199;-59
2022/04/22 01:54:28;;;;;;;11.13;9.43;;;;;;;8.75;100.00;93914.75;5094216;28;20197;-59
2022/04/22 01:56:53;;;;;;;11.43;9.10;;;;;;;8.80;100.00;93922.41;5094508;28;20202;-58
2022/04/22 01:59:19;;;;;;;12.83;9.60;;;;;;;8.71;100.00;93908.63;5094426;28;20214;-59
2022/04/22 02:01:44;;;;;;;11.60;9.17;;;;;;;8.78;100.00;93908.47;5094425;28;20204;-58
2022/04/22 02:04:09;;;;;;;13.70;9.50;;;;;;;8.67;100.00;93907.97;5094411;28;20283;-59
2022/04/22 02:06:35;;;;;;;10.80;9.70;;;;;;;8.65;100.00;93904.16;5094886;28;20186;-59
2022/04/22 02:09:00;;;;;;;11.20;9.23;;;;;;;8.53;100.00;93911.03;5094710;28;20236;-59
2022/04/22 02:11:25;;;;;;;12.47;9.97;;;;;;;8.52;100.00;93904.06;5094363;28;20199;-59
2022/04/22 02:13:50;;;;;;;11.00;9.70;;;;;;;8.43;100.00;93898.47;5094838;28;20222;-59
2022/04/22 02:16:16;;;;;;;15.63;9.23;;;;;;;8.37;100.00;93892.00;5094395;28;20241;-59
2022/04/22 02:18:42;;;;;;;11.70;9.13;;;;;;;8.48;100.00;93897.97;5093869;28;20183;-59
2022/04/22 02:21:09;;;;;;;13.10;9.70;;;;;;;8.45;100.00;93896.09;5093953;28;20290;-59
2022/04/22 02:23:35;;;;;;;11.30;9.10;;;;;;;8.30;100.00;93896.88;5094068;28;20185;-59
2022/04/22 02:26:02;;;;;;;10.80;9.40;;;;;;;8.46;100.00;93897.63;5094331;28;20749;-60
2022/04/22 02:28:33;;;;;;;11.40;10.13;;;;;;;8.54;100.00;93898.97;5093727;28;20188;-59
2022/04/22 02:31:10;;;;;;;12.70;9.80;;;;;;;8.56;100.00;93879.50;5094461;28;20196;-59
2022/04/22 02:33:37;;;;;;;11.63;9.53;;;;;;;8.55;100.00;93884.19;5093771;28;20193;-59
2022/04/22 02:36:04;;;;;;;11.93;9.67;;;;;;;8.48;100.00;93895.25;5094281;28;20187;-59
2022/04/22 02:38:31;;;;;;;13.83;10.20;;;;;;;8.55;100.00;93884.19;5094209;28;20181;-59
2022/04/22 02:46:25;;;;;;;11.40;9.97;;;;;;;8.50;100.00;93881.97;5094015;28;20660;-60
2022/04/22 02:48:51;;;;;;;11.70;9.67;;;;;;;8.46;100.00;93881.31;5093652;28;20182;-59
2022/04/22 02:51:17;;;;;;;14.23;10.30;;;;;;;8.47;100.00;93877.41;5093591;28;20188;-59
2022/04/22 02:53:43;;;;;;;13.90;9.90;;;;;;;8.45;100.00;93871.59;5093565;28;20282;-59
2022/04/22 02:56:09;;;;;;;11.60;9.77;;;;;;;8.34;100.00;93868.38;5094039;28;20227;-59
2022/04/22 02:58:35;;;;;;;12.73;10.00;;;;;;;8.28;100.00;93870.09;5093494;28;20289;-59
2022/04/22 03:01:02;;;;;;;15.33;10.17;;;;;;;8.29;100.00;93866.19;5093456;28;20215;-59
2022/04/22 03:03:27;;;;;;;12.90;10.60;;;;;;;8.18;100.00;93859.44;5093558;28;20192;-59
2022/04/22 03:05:53;;;;;;;12.90;9.97;;;;;;;8.21;100.00;93853.16;5093524;28;20197;-59
2022/04/22 03:08:18;;;;;;;13.87;10.70;;;;;;;8.17;100.00;93853.25;5093352;28;20188;-59
2022/04/22 03:10:44;;;;;;;12.90;10.13;;;;;;;8.08;100.00;93858.50;5093532;28;20637;-59
2022/04/22 03:13:09;;;;;;;13.13;10.00;;;;;;;8.12;100.00;93853.00;5093552;28;20194;-59
2022/04/22 03:15:36;;;;;;;12.53;9.80;;;;;;;8.04;100.00;93852.38;5093326;28;20188;-59
2022/04/22 03:18:01;;;;;;;13.00;10.33;;;;;;;8.05;100.00;93848.47;5094275;28;20233;-59
2022/04/22 03:20:27;;;;;;;14.13;10.63;;;;;;;8.06;100.00;93841.88;5093678;28;20294;-59
2022/04/22 03:22:52;;;;;;;13.50;10.63;;;;;;;8.11;100.00;93852.22;5093061;28;20216;-59
2022/04/22 03:25:20;;;;;;;12.97;9.87;;;;;;;8.17;100.00;93839.66;5093434;28;20211;-59
2022/04/22 03:27:46;;;;;;;13.60;10.47;;;;;;;8.19;100.00;93839.97;5092989;28;20197;-59
2022/04/22 03:30:11;;;;;;;18.23;10.57;;;;;;;8.17;100.00;93836.94;5093534;28;20195;-59
2022/04/22 03:32:36;;;;;;;14.27;10.13;;;;;;;8.15;100.00;93836.59;5093018;28;20187;-59
2022/04/22 03:35:02;;;;;;;13.27;10.60;;;;;;;8.12;100.00;93829.28;5094135;28;20187;-59
2022/04/22 03:37:28;;;;;;;13.90;10.67;;;;;;;8.04;100.00;93841.50;5093948;28;20192;-59
2022/04/22 03:39:53;;;;;;;13.47;10.73;;;;;;;8.07;100.00;93827.09;5092791;28;20205;-59
2022/04/22 03:42:18;;;;;;;12.57;10.70;;;;;;;8.03;100.00;93818.25;5093028;28;20330;-59
2022/04/22 03:44:44;;;;;;;15.17;10.57;;;;;;;8.14;100.00;93821.47;5092807;28;20287;-60
2022/04/22 03:47:09;;;;;;;15.07;11.00;;;;;;;8.04;100.00;93822.50;5093054;28;20184;-59
2022/04/22 03:49:35;;;;;;;14.03;11.03;;;;;;;7.97;100.00;93827.34;5092798;28;20188;-60
2022/04/22 03:52:00;;;;;;;14.50;11.37;;;;;;;7.98;100.00;93818.75;5094369;28;20189;-60
2022/04/22 03:54:26;;;;;;;14.03;11.17;;;;;;;8.00;100.00;93808.22;5092826;28;20224;-59
2022/04/22 03:59:35;;;;;;;15.83;10.77;;;;;;;8.08;100.00;93812.28;5097910;28;20209;-59
2022/04/22 04:02:04;;;;;;;14.60;11.47;;;;;;;8.08;100.00;93804.13;5097407;28;20176;-59
2022/04/22 04:04:30;;;;;;;15.43;11.97;;;;;;;8.01;100.00;93806.28;5096607;28;20203;-59
2022/04/22 04:06:55;;;;;;;15.80;11.37;;;;;;;8.11;100.00;93808.72;5096357;28;20200;-59
2022/04/22 04:17:43;;;;;;;14.10;11.77;;;;;;;8.16;100.00;93797.31;5097518;28;20196;-59
2022/04/22 04:25:36;;;;;;;16.00;12.37;;;;;;;8.24;100.00;93792.50;5097070;28;20215;-59
2022/04/22 04:28:03;;;;;;;16.77;12.27;;;;;;;8.31;100.00;93803.22;5095543;28;20182;-59
2022/04/22 04:30:29;;;;;;;16.03;12.17;;;;;;;8.31;100.00;93803.22;5095729;28;20199;-59
2022/04/22 04:32:54;;;;;;;17.03;12.83;;;;;;;8.43;100.00;93811.44;5095737;28;20192;-59
2022/04/22 04:35:19;;;;;;;16.67;12.70;;;;;;;8.50;100.00;93816.69;5097016;28;20259;-60
2022/04/22 04:37:45;;;;;;;16.17;12.00;;;;;;;8.54;100.00;93817.38;5095760;28;20326;-59
2022/04/22 04:40:11;;;;;;;15.67;11.53;;;;;;;8.58;100.00;93809.88;5095586;28;20245;-59
2022/04/22 04:42:36;;;;;;;17.10;11.67;;;;;;;8.58;100.00;93817.25;5095777;28;20242;-59
2022/04/22 04:45:03;;;;;;;16.20;12.57;;;;;;;8.57;100.00;93816.53;5095552;28;20185;-59
2022/04/22 04:47:28;;;;;;;20.47;12.77;;;;;;;8.78;100.00;93820.63;5095450;28;20188;-59
2022/04/22 04:49:54;;;;;;;15.10;12.47;;;;;;;8.89;100.00;93821.84;5095498;28;20185;-59
2022/04/22 04:52:19;;;;;;;18.60;12.43;;;;;;;8.84;100.00;93819.66;5095530;28;20209;-61
2022/04/22 04:54:46;;;;;;;15.97;12.40;;;;;;;8.74;100.00;93819.97;5095341;28;20241;-59
2022/04/22 04:57:11;;;;;;;18.07;13.07;;;;;;;9.01;100.00;93823.88;5095329;28;20264;-59
2022/04/22 04:59:37;;;;;;;17.03;12.20;;;;;;;9.18;100.00;93819.88;5095489;28;20215;-59
2022/04/22 05:02:02;;;;;;;15.67;12.30;;;;;;;8.87;100.00;93818.03;5095212;28;20235;-59
2022/04/22 05:04:28;;;;;;;18.73;12.53;;;;;;;8.89;100.00;93821.84;5095426;28;20231;-59
2022/04/22 05:06:53;;;;;;;16.20;13.10;;;;;;;8.89;100.00;93821.84;5095159;28;20194;-59
2022/04/22 05:09:18;;;;;;;17.33;12.60;;;;;;;9.19;100.00;93824.13;5094487;28;20199;-59
2022/04/22 05:11:44;;;;;;;15.47;12.33;;;;;;;9.34;100.00;93825.25;5095029;28;20195;-59
2022/04/22 05:14:09;;;;;;;15.73;12.50;;;;;;;9.46;100.00;93821.78;5095738;28;20226;-59
2022/04/22 05:16:34;;;;;;;16.93;13.07;;;;;;;9.58;100.00;93812.84;5095026;28;20185;-59
2022/04/22 05:18:59;;;;;;;15.37;12.23;;;;;;;9.65;100.00;93815.34;5095463;28;20244;-62
2022/04/22 05:21:25;;;;;;;16.33;11.87;;;;;;;9.63;100.00;93820.50;5095057;28;20240;-58
2022/04/22 05:23:50;;;;;;;16.87;12.83;;;;;;;9.75;100.00;93811.53;5094976;28;20214;-59
2022/04/22 05:26:15;;;;;;;14.83;11.93;;;;;;;9.56;100.00;93803.59;5094873;28;20203;-59
2022/04/22 05:28:43;;;;;;;14.07;12.07;;;;;;;9.68;100.00;93805.53;5094572;28;20202;-61
2022/04/22 05:33:53;;;;;;;14.90;12.73;;;;;;;9.89;100.00;93805.66;5096319;28;20235;-59
2022/04/22 05:36:19;;;;;;;15.10;12.47;;;;;;;9.75;100.00;93806.09;5094746;28;20184;-59
2022/04/22 05:38:44;;;;;;;17.40;12.23;;;;;;;9.85;100.00;93801.50;5094661;28;20180;-60
2022/04/22 05:41:10;;;;;;;15.17;12.43;;;;;;;10.48;100.00;93812.34;5094409;28;20207;-59
2022/04/22 05:43:37;;;;;;;15.10;11.97;;;;;;;10.29;100.00;93810.63;5095168;28;20177;-60
2022/04/22 05:46:02;;;;;;;15.60;12.63;;;;;;;10.52;100.00;93807.53;5094835;28;20189;-60
2022/04/22 05:48:28;;;;;;;21.30;12.60;;;;;;;10.60;100.00;93800.63;5094933;28;20534;-59
2022/04/22 05:50:53;;;;;;;16.90;12.23;;;;;;;10.79;100.00;93788.66;5094601;28;20177;-59
2022/04/22 05:53:18;;;;;;;18.00;12.93;;;;;;;10.95;100.00;93800.16;5094800;28;20217;-59
2022/04/22 05:55:45;;;;;;;15.07;12.60;;;;;;;10.78;100.00;93800.78;5094263;28;20192;-60
2022/04/22 05:58:11;;;;;;;15.70;12.77;;;;;;;10.62;100.00;93800.94;5095302;28;20244;-60
2022/04/22 06:00:36;;;;;;;16.33;12.57;;;;;;;10.98;100.00;93806.69;5094731;28;20212;-59
2022/04/22 06:03:01;;;;;;;17.27;12.73;;;;;;;11.49;100.00;93802.47;5094266;28;20551;-61
2022/04/22 06:05:27;;;;;;;17.83;12.67;;;;;;;11.63;100.00;93796.50;5094540;28;20550;-59
2022/04/22 06:10:38;;;;;;;17.73;13.43;;;;;;;11.87;100.00;93800.28;5095253;28;20191;-59
2022/04/22 06:13:05;;;;;;;16.40;12.63;;;;;;;12.25;100.00;93804.19;5094231;28;20231;-60
2022/04/22 06:15:31;;;;;;;15.73;13.00;;;;;;;11.48;100.00;93807.16;5094097;28;20188;-60
2022/04/22 06:17:57;;;;;;;14.97;12.53;;;;;;;11.70;100.00;93801.72;5093917;28;20182;-60
2022/04/22 06:20:22;;;;;;;15.73;12.03;;;;;;;11.84;100.00;93798.44;5093571;28;20208;-60
2022/04/22 06:22:48;;;;;;;15.70;12.70;;;;;;;11.65;100.00;93799.56;5094480;28;20238;-60
2022/04/22 06:25:14;;;;;;;16.10;12.90;;;;;;;11.93;100.00;93804.69;5094208;28;20215;-59
2022/04/22 06:27:43;;;;;;;16.90;12.50;;;;;;;12.34;98.87;93806.16;5094088;28;20188;-59
2022/04/22 06:30:13;;;;;;;13.63;12.10;;;;;;;12.54;97.76;93806.53;5093406;28;20222;-59
2022/04/22 06:32:41;;;;;;;15.03;12.43;;;;;;;12.75;93.93;93800.91;5093941;28;20187;-59
2022/04/22 06:35:08;;;;;;;13.43;12.00;;;;;;;12.08;96.43;93799.41;5093741;28;20700;-59
2022/04/22 06:37:36;;;;;;;14.70;12.60;;;;;;;11.87;97.57;93803.00;5094594;28;20310;-59
2022/04/22 06:45:48;;;;;;;16.60;12.03;;;;;;;12.83;93.87;93806.88;5095215;28;20217;-59
2022/04/22 06:48:21;;;;;;;14.43;12.63;;;;;;;12.74;93.15;93810.34;5094123;28;20203;-59
2022/04/22 06:50:51;;;;;;;14.03;11.50;;;;;;;11.78;98.60;93808.41;5093900;28;20184;-59
2022/04/22 06:53:18;;;;;;;14.20;11.73;;;;;;;13.63;91.19;93791.56;5093490;28;20217;-59
2022/04/22 06:55:44;;;;;;;13.93;12.30;;;;;;;13.32;90.16;93791.78;5093373;28;20314;-60
2022/04/22 06:58:12;;;;;;;14.33;12.40;;;;;;;13.45;89.15;93788.88;5093677;28;20190;-59
2022/04/22 07:00:39;;;;;;;17.70;12.90;;;;;;;13.13;90.11;93800.50;5093897;28;20231;-59
2022/04/22 07:03:05;;;;;;;13.57;11.70;;;;;;;12.40;93.70;93804.38;5093182;28;20212;-59
2022/04/22 07:05:33;;;;;;;19.57;12.77;;;;;;;12.24;97.06;93796.44;5093330;28;20180;-59
2022/04/22 07:07:59;;;;;;;15.93;12.43;;;;;;;11.82;99.52;93789.91;5093532;28;20284;-59
2022/04/22 07:10:25;;;;;;;15.60;12.87;;;;;;;12.30;96.63;93794.59;5093399;28;20195;-59
2022/04/22 07:12:51;;;;;;;15.50;12.27;;;;;;;12.36;96.68;93792.81;5093054;28;20190;-59
2022/04/22 07:15:16;;;;;;;14.87;13.00;;;;;;;12.50;95.97;93787.50;5093562;28;20189;-59
2022/04/22 07:17:42;;;;;;;16.87;12.80;;;;;;;13.11;92.80;93781.75;5092908;28;20184;-59
2022/04/22 07:20:10;;;;;;;15.93;12.53;;;;;;;12.49;93.63;93782.47;5093234;28;20204;-59
2022/04/22 07:22:40;;;;;;;13.00;11.60;;;;;;;12.72;92.09;93782.63;5093238;28;20233;-59
2022/04/22 07:25:07;;;;;;;13.73;11.37;;;;;;;13.20;88.41;93784.50;5092871;28;20205;-60
2022/04/22 07:27:35;;;;;;;13.93;11.53;;;;;;;12.90;89.54;93771.69;5092789;28;20199;-60
2022/04/22 07:30:00;;;;;;;14.80;11.67;;;;;;;12.72;90.78;93779.16;5092602;28;20178;-59
2022/04/22 07:32:29;;;;;;;13.70;11.10;;;;;;;13.25;89.31;93777.63;5092673;28;20230;-60
2022/04/22 07:34:55;;;;;;;14.53;11.17;;;;;;;13.51;85.47;93770.56;5092842;28;20235;-60
2022/04/22 07:37:21;;;;;;;15.07;10.43;;;;;;;13.33;84.62;93781.56;5092837;28;20189;-58
2022/04/22 07:39:47;;;;;;;12.43;11.13;;;;;;;13.79;83.73;93772.00;5093006;28;20199;-60
2022/04/22 07:42:19;;;;;;;14.33;10.93;;;;;;;14.41;81.67;93770.19;5092720;28;20198;-59
2022/04/22 07:47:36;;;;;;;13.40;10.83;;;;;;;14.93;78.50;93772.25;5094177;28;20209;-60
2022/04/22 07:50:05;;;;;;;11.97;10.63;;;;;;;14.57;79.97;93766.28;5092565;28;20229;-60
2022/04/22 07:52:34;;;;;;;14.10;11.27;;;;;;;14.31;79.69;93770.72;5092357;28;20180;-59
2022/04/22 07:55:00;;;;;;;13.47;11.10;;;;;;;14.37;82.10;93764.13;5092653;28;20191;-59
2022/04/22 07:57:27;;;;;;;12.23;10.83;;;;;;;14.57;80.40;93761.53;5092754;28;20188;-59
2022/04/22 07:59:52;;;;;;;12.90;11.20;;;;;;;15.91;74.97;93758.78;5093060;28;20211;-60
2022/04/22 08:02:18;;;;;;;12.00;10.80;;;;;;;17.14;66.54;93759.19;5092985;28;20176;-60
2022/04/22 08:04:43;;;;;;;13.03;10.57;;;;;;;15.14;74.03;93762.94;5092557;28;20188;-60
2022/04/22 08:07:09;;;;;;;11.90;10.20;;;;;;;14.18;77.35;93762.69;5092676;28;20321;-60
2022/04/22 08:09:35;;;;;;;12.60;11.30;;;;;;;14.08;80.07;93768.66;5092356;28;20188;-60
2022/04/22 08:12:00;;;;;;;12.50;11.30;;;;;;;14.13;80.43;93766.03;5092624;28;20180;-60
2022/04/22 08:14:27;;;;;;;13.90;11.20;;;;;;;14.20;79.94;93768.44;5092818;28;20550;-60
2022/04/22 08:16:56;;;;;;;14.77;10.40;;;;;;;14.50;78.22;93766.63;5092396;28;20211;-59
2022/04/22 08:19:21;;;;;;;12.77;10.60;;;;;;;15.28;75.78;93775.94;5092058;28;20195;-59
2022/04/22 08:21:47;;;;;;;11.67;10.40;;;;;;;16.05;70.97;93771.78;5092217;28;20189;-59
2022/04/22 08:24:12;;;;;;;12.67;10.50;;;;;;;16.10;70.48;93773.84;5092305;28;20184;-59
2022/04/22 08:26:38;;;;;;;11.30;10.20;;;;;;;16.12;68.90;93774.13;5092191;28;20208;-59
2022/04/22 08:29:04;;;;;;;13.60;10.37;;;;;;;16.70;66.63;93780.72;5092056;28;20192;-60
2022/04/22 08:31:29;;;;;;;12.10;10.03;;;;;;;16.16;67.92;93782.97;5092206;28;20180;-59
2022/04/22 08:33:57;;;;;;;12.00;10.07;;;;;;;15.87;70.08;93777.50;5092139;28;20188;-59
2022/04/22 08:36:30;;;;;;;13.27;10.23;;;;;;;16.22;69.21;93764.50;5091971;28;20641;-60
2022/04/22 08:38:59;;;;;;;11.60;10.50;;;;;;;16.93;67.30;93760.47;5092088;28;20203;-60
2022/04/22 08:41:26;;;;;;;12.87;10.73;;;;;;;18.00;62.43;93768.09;5092189;28;20196;-61
2022/04/22 08:43:56;;;;;;;11.33;10.23;;;;;;;18.49;57.46;93759.41;5093643;28;20185;-59
2022/04/22 08:51:51;;;;;;;11.90;10.73;;;;;;;20.41;50.43;93761.94;5096796;28;20191;-60
2022/04/22 08:54:19;;;;;;;11.33;10.23;;;;;;;20.77;50.01;93760.13;5095021;28;20638;-59
2022/04/22 08:56:46;;;;;;;13.77;10.33;;;;;;;19.74;49.82;93759.66;5095089;28;20238;-62
2022/04/22 08:59:12;;;;;;;11.50;10.30;;;;;;;18.95;53.40;93768.22;5094711;28;20216;-59
2022/04/22 09:01:37;;;;;;;13.03;11.83;;;;;;;18.66;54.30;93760.28;5095738;28;20263;-59
2022/04/22 09:04:04;;;;;;;11.60;10.33;;;;;;;18.74;53.67;93758.53;5095055;28;20316;-59
2022/04/22 09:06:30;;;;;;;13.50;10.80;;;;;;;18.07;56.55;93751.81;5095210;28;20185;-59
2022/04/22 09:08:57;;;;;;;11.40;10.20;;;;;;;16.83;61.23;93756.34;5095450;28;20288;-59
2022/04/22 09:11:23;;;;;;;13.33;10.80;;;;;;;17.04;63.27;93771.63;5095183;28;20309;-59
2022/04/22 09:13:49;;;;;;;12.30;11.10;;;;;;;18.41;56.96;93752.81;5094885;28;20215;-60
2022/04/22 09:16:21;;;;;;;11.33;10.23;;;;;;;18.69;55.17;93762.06;5095127;28;20211;-60
2022/04/22 09:18:47;;;;;;;12.60;10.47;;;;;;;18.22;55.53;93765.50;5094956;28;20191;-60
2022/04/22 09:21:17;;;;;;;10.73;9.73;;;;;;;18.23;57.24;93767.78;5094866;28;20287;-60
2022/04/22 09:23:42;;;;;;;11.73;10.53;;;;;;;17.66;60.34;93771.81;5094532;28;20208;-59
2022/04/22 09:26:22;;;;;;;11.30;10.20;;;;;;;17.95;57.92;93760.53;5094667;28;20208;-60
2022/04/22 09:29:01;;;;;;;11.07;9.97;;;;;;;18.43;58.07;93761.41;5094790;28;20180;-60
2022/04/22 09:31:27;;;;;;;10.90;9.60;;;;;;;18.54;54.85;93758.69;5095337;28;20169;-60
2022/04/22 09:33:54;;;;;;;13.37;10.80;;;;;;;18.53;56.00;93755.16;5094549;28;20184;-60
2022/04/22 09:44:56;;;;;;;11.33;10.23;;;;;;;19.75;52.06;93744.53;5096003;28;20214;-60
2022/04/22 09:47:26;;;;;;;11.47;9.90;;;;;;;18.79;53.74;93743.97;5094151;28;20195;-60
2022/04/22 09:49:52;;;;;;;11.97;10.67;;;;;;;18.82;55.32;93748.53;5095002;28;20275;-60
2022/04/22 09:52:27;;;;;;;11.97;10.83;;;;;;;17.71;57.97;93746.25;5094615;28;20223;-60
2022/04/22 09:54:56;;;;;;;11.53;10.47;;;;;;;17.87;58.74;93748.38;5093837;28;20188;-60
2022/04/22 09:57:21;;;;;;;11.10;10.00;;;;;;;18.50;55.84;93738.81;5094807;28;20188;-59
2022/04/22 09:59:47;;;;;;;11.20;10.20;;;;;;;19.06;55.73;93729.50;5094531;28;20200;-61
2022/04/22 10:02:21;;;;;;;11.60;10.47;;;;;;;19.81;52.48;93740.50;5094256;28;20184;-60
2022/04/22 10:04:47;;;;;;;11.43;10.23;;;;;;;19.57;52.00;93745.00;5094572;28;20187;-60
2022/04/22 10:07:12;;;;;;;11.13;10.03;;;;;;;19.74;51.61;93738.22;5094299;28;20245;-60
2022/04/22 10:09:39;;;;;;;11.73;9.83;;;;;;;19.76;51.90;93730.19;5094069;28;20205;-59
2022/04/22 10:12:09;;;;;;;11.53;10.33;;;;;;;18.12;54.48;93747.56;5094496;28;20253;-62
2022/04/22 10:14:40;;;;;;;10.90;10.00;;;;;;;20.06;52.03;93733.97;5094137;28;20176;-60
2022/04/22 10:17:06;;;;;;;11.40;10.20;;;;;;;20.02;49.94;93736.22;5094573;28;20243;-61
2022/04/22 10:19:33;;;;;;;11.00;9.93;;;;;;;20.41;50.06;93728.66;5094221;28;20378;-60
2022/04/22 10:22:00;;;;;;;11.33;10.23;;;;;;;19.73;50.12;93731.19;5093759;28;20195;-59
2022/04/22 10:24:26;;;;;;;12.30;10.80;;;;;;;19.14;53.12;93728.53;5094187;28;20184;-61
2022/04/22 10:26:52;;;;;;;11.47;10.27;;;;;;;18.95;52.75;93740.53;5094880;28;20255;-60
2022/04/22 10:29:19;;;;;;;11.80;10.60;;;;;;;19.15;52.84;93737.56;5093687;28;20214;-59
2022/04/22 10:31:45;;;;;;;12.30;11.00;;;;;;;19.14;52.39;93736.06;5093786;28;20196;-59
2022/04/22 10:34:10;;;;;;;12.10;10.97;;;;;;;19.59;51.23;93737.72;5093997;28;20180;-59
2022/04/22 10:36:38;;;;;;;11.70;10.60;;;;;;;19.10;52.62;93735.56;5093931;28;20210;-60
2022/04/22 10:39:04;;;;;;;11.93;10.73;;;;;;;18.81;53.62;93738.72;5093883;28;20238;-59
2022/04/22 10:41:43;;;;;;;12.33;11.03;;;;;;;18.89;53.08;93739.75;5093567;28;20563;-61
2022/04/22 10:47:13;;;;;;;12.30;11.07;;;;;;;19.81;51.80;93732.19;5094885;28;20598;-60
2022/04/22 10:49:46;;;;;;;12.53;11.10;;;;;;;19.78;52.23;93738.00;5093480;28;20184;-60
2022/04/22 10:52:14;;;;;;;12.47;11.23;;;;;;;18.76;53.97;93745.00;5093807;28;20184;-60
2022/04/22 10:54:51;;;;;;;12.50;11.30;;;;;;;18.45;56.72;93740.28;5093825;28;20566;-60
2022/04/22 10:57:21;;;;;;;13.07;11.67;;;;;;;20.28;51.68;93725.66;5093358;28;20213;-60
2022/04/22 11:00:03;;;;;;;12.10;10.80;;;;;;;19.72;52.04;93740.75;5094266;28;20212;-60
2022/04/22 11:02:29;;;;;;;11.77;10.50;;;;;;;19.21;53.18;93741.91;5093854;28;20206;-59
2022/04/22 11:05:21;;;;;;;12.77;11.57;;;;;;;19.52;53.20;93732.66;5093744;28;20180;-59
2022/04/22 11:07:55;;;;;;;12.87;11.50;;;;;;;19.74;53.29;93734.72;5054694;28;20212;-60
2022/04/22 11:10:22;;;;;;;11.93;10.83;;;;;;;19.84;50.82;93736.72;5093489;28;20196;-59
2022/04/22 11:12:56;;;;;;;11.50;10.40;;;;;;;20.99;47.97;93732.31;5093243;28;20183;-60
2022/04/22 11:15:43;;;;;;;13.57;12.27;;;;;;;20.23;49.66;93734.75;5092962;28;20195;-59
2022/04/22 11:18:13;;;;;;;12.10;10.90;;;;;;;19.35;52.26;93740.19;5093242;28;20184;-60
2022/04/22 11:20:42;;;;;;;11.63;10.53;;;;;;;19.77;51.32;93731.69;5093195;28;20208;-57
2022/04/22 11:23:14;;;;;;;13.07;11.77;;;;;;;19.09;53.21;93729.25;5092790;28;20184;-58
2022/04/22 11:25:42;;;;;;;13.13;11.83;;;;;;;19.67;52.43;93741.53;5093094;28;20243;-59
2022/04/22 11:28:08;;;;;;;12.37;11.10;;;;;;;19.98;51.46;93743.28;5092731;28;20267;-59
2022/04/22 11:30:34;;;;;;;14.27;11.40;;;;;;;20.84;49.51;93743.69;5092995;28;20188;-59
2022/04/22 11:33:13;;;;;;;12.83;11.60;;;;;;;20.22;51.09;93744.34;5092736;28;20177;-60
2022/04/22 11:35:39;;;;;;;13.10;11.80;;;;;;;20.26;50.26;93747.59;5093504;28;20183;-60
2022/04/22 11:38:05;;;;;;;12.27;11.10;;;;;;;20.06;50.29;93747.81;5092890;28;20260;-60
2022/04/22 11:40:35;;;;;;;16.57;12.07;;;;;;;19.29;52.70;93744.94;5092683;28;20733;-57
2022/04/22 11:43:14;;;;;;;13.30;12.03;;;;;;;19.14;54.44;93736.06;5093117;28;20331;-57
2022/04/22 11:45:45;;;;;;;12.63;11.33;;;;;;;18.82;55.43;93743.00;5093092;28;20191;-57
2022/04/22 11:48:18;;;;;;;12.57;11.47;;;;;;;19.07;55.07;93739.31;5092669;28;20181;-57
2022/04/22 11:50:45;;;;;;;13.27;11.73;;;;;;;18.74;56.44;93753.78;5092786;28;20629;-57
2022/04/22 11:53:26;;;;;;;12.77;11.07;;;;;;;18.73;55.87;93743.22;5092922;28;20184;-57
2022/04/22 11:55:51;;;;;;;12.47;11.17;;;;;;;18.60;57.48;93729.06;5093107;28;20188;-58
2022/04/22 11:58:27;;;;;;;13.37;12.00;;;;;;;19.19;55.13;93738.84;5092416;28;20196;-58
2022/04/22 12:06:23;;;;;;;13.03;11.73;;;;;;;18.90;56.99;93730.97;5093528;28;20195;-58
2022/04/22 12:08:54;;;;;;;13.10;11.07;;;;;;;19.12;56.35;93739.34;5092482;28;20188;-59
2022/04/22 12:11:20;;;;;;;16.17;11.70;;;;;;;19.27;55.92;93733.63;5093246;28;20217;-58
2022/04/22 12:13:47;;;;;;;12.53;11.33;;;;;;;18.77;57.04;93744.50;5093019;28;20206;-58
2022/04/22 12:16:33;;;;;;;14.73;11.10;;;;;;;18.46;57.04;93743.81;5092171;28;20192;-58
2022/04/22 12:19:00;;;;;;;12.73;11.53;;;;;;;18.74;56.24;93748.25;5093506;28;20200;-59
2022/04/22 12:21:26;;;;;;;13.97;11.57;;;;;;;18.85;55.85;93742.75;5095842;28;20222;-58
2022/04/22 12:23:57;;;;;;;12.77;11.47;;;;;;;18.32;59.00;93745.44;5095939;28;20221;-58